createdAt,value
2022-12-28T00:00:07.313Z,-2.60
2022-12-28T00:02:35.264Z,-2.50
2022-12-28T00:05:04.609Z,-2.50
2022-12-28T00:07:32.450Z,-2.50
2022-12-28T00:10:00.280Z,-2.50
2022-12-28T00:12:28.057Z,-2.40
2022-12-28T00:14:55.897Z,-2.40
2022-12-28T00:17:23.717Z,-2.40
2022-12-28T00:19:51.524Z,-2.40
2022-12-28T00:22:20.696Z,-2.50
2022-12-28T00:24:48.500Z,-2.50
2022-12-28T00:27:16.318Z,-2.50
2022-12-28T00:29:44.133Z,-2.50
2022-12-28T00:32:11.923Z,-2.50
2022-12-28T00:34:39.769Z,-2.50
2022-12-28T00:37:12.660Z,-2.50
2022-12-28T00:39:43.273Z,-2.50
2022-12-28T00:42:11.195Z,-2.50
2022-12-28T00:44:39.150Z,-2.50
2022-12-28T00:47:07.005Z,-2.50
2022-12-28T00:49:34.846Z,-2.50
2022-12-28T00:52:02.641Z,-2.50
2022-12-28T00:54:30.460Z,-2.40
2022-12-28T00:56:59.649Z,-2.40
2022-12-28T00:59:27.478Z,-2.40
2022-12-28T01:01:55.432Z,-2.40
2022-12-28T01:04:23.736Z,-2.40
2022-12-28T01:06:51.599Z,-2.40
2022-12-28T01:09:19.422Z,-2.30
2022-12-28T01:11:47.285Z,-2.30
2022-12-28T01:14:16.425Z,-2.30
2022-12-28T01:16:44.279Z,-2.30
2022-12-28T01:19:14.480Z,-2.30
2022-12-28T01:21:42.240Z,-2.30
2022-12-28T01:24:10.568Z,-2.30
2022-12-28T01:26:38.475Z,-2.30
2022-12-28T01:29:06.268Z,-2.30
2022-12-28T01:31:35.466Z,-2.30
2022-12-28T01:34:03.445Z,-2.30
2022-12-28T01:36:32.486Z,-2.30
2022-12-28T01:39:01.448Z,-2.30
2022-12-28T01:41:29.916Z,-2.40
2022-12-28T01:44:16.198Z,-2.30
2022-12-28T01:46:46.617Z,-2.30
2022-12-28T01:49:17.438Z,-2.40
2022-12-28T01:51:47.353Z,-2.40
2022-12-28T01:54:15.922Z,-2.50
2022-12-28T01:56:44.041Z,-2.40
2022-12-28T01:59:12.117Z,-2.50
2022-12-28T02:01:40.159Z,-2.50
2022-12-28T02:04:09.562Z,-2.60
2022-12-28T02:06:37.489Z,-2.60
2022-12-28T02:09:07.184Z,-2.70
2022-12-28T02:11:35.398Z,-2.70
2022-12-28T02:14:03.916Z,-2.80
2022-12-28T02:16:31.749Z,-2.90
2022-12-28T02:18:59.723Z,-2.90
2022-12-28T02:21:35.252Z,-3.00
2022-12-28T02:24:14.903Z,-3.10
2022-12-28T02:26:54.701Z,-3.20
2022-12-28T02:29:43.654Z,-3.20
2022-12-28T02:32:17.960Z,-3.20
2022-12-28T02:34:49.629Z,-3.20
2022-12-28T02:37:19.927Z,-3.30
2022-12-28T02:39:49.894Z,-3.30
2022-12-28T02:42:18.798Z,-3.30
2022-12-28T02:45:04.301Z,-3.30
2022-12-28T02:47:50.801Z,-3.40
2022-12-28T02:50:18.762Z,-3.40
2022-12-28T02:52:56.801Z,-3.30
2022-12-28T02:55:53.014Z,-3.40
2022-12-28T02:58:31.486Z,-3.40
2022-12-28T03:01:04.314Z,-3.40
2022-12-28T03:03:36.394Z,-3.40
2022-12-28T03:06:30.639Z,-3.40
2022-12-28T03:09:03.018Z,-3.40
2022-12-28T03:11:35.524Z,-3.40
2022-12-28T03:14:04.687Z,-3.40
2022-12-28T03:16:56.358Z,-3.40
2022-12-28T03:19:45.928Z,-3.40
2022-12-28T03:22:32.228Z,-3.40
2022-12-28T03:25:18.486Z,-3.40
2022-12-28T03:28:05.376Z,-3.40
2022-12-28T03:30:52.257Z,-3.40
2022-12-28T03:33:20.190Z,-3.50
2022-12-28T03:35:50.806Z,-3.50
2022-12-28T03:38:27.325Z,-3.50
2022-12-28T03:40:58.242Z,-3.60
2022-12-28T03:43:40.637Z,-3.60
2022-12-28T03:46:11.028Z,-3.50
2022-12-28T03:48:38.931Z,-3.60
2022-12-28T03:51:08.361Z,-3.60
2022-12-28T03:53:39.001Z,-3.60
2022-12-28T03:56:07.770Z,-3.60
2022-12-28T03:58:35.626Z,-3.60
2022-12-28T04:01:03.503Z,-3.60
2022-12-28T04:03:31.765Z,-3.60
2022-12-28T04:05:59.958Z,-3.60
2022-12-28T04:08:29.283Z,-3.70
2022-12-28T04:10:59.399Z,-3.70
2022-12-28T04:13:29.483Z,-3.70
2022-12-28T04:15:58.207Z,-3.70
2022-12-28T04:18:26.225Z,-3.80
2022-12-28T04:20:54.075Z,-3.70
2022-12-28T04:23:21.891Z,-3.70
2022-12-28T04:26:01.423Z,-3.70
2022-12-28T04:28:29.461Z,-3.70
2022-12-28T04:30:57.539Z,-3.60
2022-12-28T04:33:25.770Z,-3.60
2022-12-28T04:35:53.905Z,-3.60
2022-12-28T04:38:22.241Z,-3.60
2022-12-28T04:40:50.040Z,-3.60
2022-12-28T04:43:19.233Z,-3.60
2022-12-28T04:45:55.858Z,-3.60
2022-12-28T04:48:23.665Z,-3.60
2022-12-28T04:50:51.472Z,-3.60
2022-12-28T04:53:19.299Z,-3.60
2022-12-28T04:55:47.280Z,-3.60
2022-12-28T04:58:15.147Z,-3.60
2022-12-28T05:00:44.604Z,-3.60
2022-12-28T05:03:12.432Z,-3.50
2022-12-28T05:05:40.651Z,-3.50
2022-12-28T05:08:08.460Z,-3.50
2022-12-28T05:10:36.677Z,-3.50
2022-12-28T05:13:04.555Z,-3.40
2022-12-28T05:15:32.354Z,-3.40
2022-12-28T05:18:01.518Z,-3.30
2022-12-28T05:20:29.335Z,-3.30
2022-12-28T05:22:57.121Z,-3.30
2022-12-28T05:25:24.929Z,-3.30
2022-12-28T05:27:52.769Z,-3.30
2022-12-28T05:30:20.564Z,-3.40
2022-12-28T05:32:48.393Z,-3.40
2022-12-28T05:35:17.718Z,-3.30
2022-12-28T05:37:45.546Z,-3.30
2022-12-28T05:40:13.363Z,-3.30
2022-12-28T05:42:43.901Z,-3.30
2022-12-28T05:45:15.800Z,-3.30
2022-12-28T05:47:43.605Z,-3.40
2022-12-28T05:50:11.868Z,-3.30
2022-12-28T05:52:41.049Z,-3.30
2022-12-28T05:55:09.198Z,-3.20
2022-12-28T05:57:37.012Z,-3.20
2022-12-28T06:00:05.717Z,-3.10
2022-12-28T06:02:33.662Z,-3.10
2022-12-28T06:05:01.641Z,-3.00
2022-12-28T06:07:29.447Z,-3.00
2022-12-28T06:09:58.591Z,-2.90
2022-12-28T06:12:26.390Z,-2.90
2022-12-28T06:14:54.182Z,-2.90
2022-12-28T06:17:22.003Z,-2.80
2022-12-28T06:19:49.811Z,-2.80
2022-12-28T06:22:17.626Z,-2.80
2022-12-28T06:24:45.438Z,-2.80
2022-12-28T06:27:14.625Z,-2.80
2022-12-28T06:29:42.480Z,-2.80
2022-12-28T06:32:10.393Z,-2.70
2022-12-28T06:34:38.220Z,-2.70
2022-12-28T06:37:06.018Z,-2.70
2022-12-28T06:39:35.700Z,-2.60
2022-12-28T06:42:03.495Z,-2.60
2022-12-28T06:44:32.642Z,-2.60
2022-12-28T06:47:00.499Z,-2.60
2022-12-28T06:49:28.876Z,-2.50
2022-12-28T06:51:56.684Z,-2.50
2022-12-28T06:54:24.793Z,-2.50
2022-12-28T06:56:52.648Z,-2.50
2022-12-28T06:59:20.478Z,-2.50
2022-12-28T07:01:49.775Z,-2.50
2022-12-28T07:04:17.729Z,-2.40
2022-12-28T07:06:45.585Z,-2.40
2022-12-28T07:09:14.280Z,-2.40
2022-12-28T07:11:42.329Z,-2.50
2022-12-28T07:14:10.229Z,-2.50
2022-12-28T07:19:06.151Z,-2.50
2022-12-28T07:21:34.721Z,-2.40
2022-12-28T07:24:02.610Z,-2.40
2022-12-28T07:26:31.198Z,-2.30
2022-12-28T07:28:59.923Z,-2.20
2022-12-28T07:31:28.596Z,-2.20
2022-12-28T07:33:56.981Z,-2.10
2022-12-28T07:36:26.652Z,-2.00
2022-12-28T07:38:55.650Z,-2.00
2022-12-28T07:41:24.802Z,-1.90
2022-12-28T07:43:52.918Z,-1.70
2022-12-28T07:46:21.747Z,-1.60
2022-12-28T07:48:49.677Z,-1.50
2022-12-28T07:51:18.261Z,-1.30
2022-12-28T07:53:48.005Z,-1.20
2022-12-28T07:56:16.262Z,-1.10
2022-12-28T08:01:13.247Z,-0.60
2022-12-28T08:03:42.316Z,-0.40
2022-12-28T08:06:11.567Z,-0.30
2022-12-28T08:08:40.086Z,-0.20
2022-12-28T08:11:11.482Z,-0.10
2022-12-28T08:13:40.908Z,0.00
2022-12-28T08:16:10.865Z,0.10
2022-12-28T08:18:38.925Z,0.20
2022-12-28T08:21:07.820Z,0.40
2022-12-28T08:23:35.649Z,0.60
2022-12-28T08:26:06.918Z,0.80
2022-12-28T08:28:36.450Z,0.90
2022-12-28T08:31:07.901Z,1.00
2022-12-28T08:33:36.269Z,1.20
2022-12-28T08:36:04.337Z,1.20
2022-12-28T08:38:32.173Z,1.40
2022-12-28T08:41:00.866Z,1.60
2022-12-28T08:43:28.963Z,1.80
2022-12-28T08:46:02.085Z,1.90
2022-12-28T08:48:30.602Z,2.00
2022-12-28T08:51:02.143Z,2.20
2022-12-28T08:53:29.999Z,2.30
2022-12-28T08:56:06.601Z,2.30
2022-12-28T08:58:35.000Z,2.40
2022-12-28T09:01:08.772Z,2.40
2022-12-28T09:03:37.537Z,2.40
2022-12-28T09:06:05.754Z,2.50
2022-12-28T09:08:33.599Z,2.40
2022-12-28T09:11:01.865Z,2.50
2022-12-28T09:13:29.740Z,2.50
2022-12-28T09:15:58.225Z,2.50
2022-12-28T09:18:27.528Z,2.50
2022-12-28T09:20:55.380Z,2.40
2022-12-28T09:23:23.583Z,2.40
2022-12-28T09:25:51.486Z,2.50
2022-12-28T09:28:19.298Z,2.50
2022-12-28T09:30:47.109Z,2.60
2022-12-28T09:33:32.390Z,2.70
2022-12-28T09:36:01.697Z,2.70
2022-12-28T09:38:29.503Z,2.70
2022-12-28T09:40:57.317Z,2.70
2022-12-28T09:43:26.202Z,2.80
2022-12-28T09:45:55.512Z,2.80
2022-12-28T09:48:26.515Z,2.80
2022-12-28T09:50:54.490Z,2.90
2022-12-28T09:53:29.388Z,3.00
2022-12-28T09:56:02.420Z,3.00
2022-12-28T09:58:31.228Z,3.10
2022-12-28T10:00:59.879Z,3.20
2022-12-28T10:03:28.711Z,3.20
2022-12-28T10:05:57.482Z,3.30
2022-12-28T10:08:26.227Z,3.40
2022-12-28T10:10:56.628Z,3.50
2022-12-28T10:16:17.679Z,3.80
2022-12-28T10:18:45.979Z,3.90
2022-12-28T10:21:13.964Z,4.00
2022-12-28T10:24:12.141Z,4.10
2022-12-28T10:26:31.975Z,4.20
2022-12-28T10:29:00.911Z,4.30
2022-12-28T10:31:33.274Z,4.40
2022-12-28T10:34:01.357Z,4.40
2022-12-28T10:36:32.745Z,4.40
2022-12-28T10:39:01.746Z,4.50
2022-12-28T10:41:37.195Z,4.60
2022-12-28T10:44:38.347Z,4.60
2022-12-28T10:47:02.607Z,4.70
2022-12-28T10:49:33.034Z,4.80
2022-12-28T10:52:05.808Z,4.90
2022-12-28T10:54:35.575Z,4.90
2022-12-28T10:57:04.949Z,5.00
2022-12-28T10:59:33.385Z,5.00
2022-12-28T11:02:19.962Z,5.10
2022-12-28T11:04:54.863Z,5.20
2022-12-28T11:07:28.235Z,5.20
2022-12-28T11:10:14.179Z,5.40
2022-12-28T11:12:44.884Z,5.60
2022-12-28T11:15:14.865Z,5.70
2022-12-28T11:17:43.068Z,5.80
2022-12-28T11:20:15.155Z,5.90
2022-12-28T11:22:45.329Z,6.00
2022-12-28T11:25:15.714Z,6.10
2022-12-28T11:27:45.090Z,6.20
2022-12-28T11:30:17.477Z,6.40
2022-12-28T11:32:49.533Z,6.50
2022-12-28T11:35:18.346Z,6.50
2022-12-28T11:37:52.827Z,6.50
2022-12-28T11:40:38.488Z,6.50
2022-12-28T11:43:28.407Z,6.50
2022-12-28T11:45:57.179Z,6.50
2022-12-28T11:48:39.345Z,6.60
2022-12-28T11:51:07.436Z,6.60
2022-12-28T11:53:52.182Z,6.60
2022-12-28T11:56:20.831Z,6.70
2022-12-28T11:59:01.683Z,6.70
2022-12-28T12:01:42.912Z,6.70
2022-12-28T12:04:17.979Z,6.80
2022-12-28T12:07:04.461Z,6.80
2022-12-28T12:09:43.533Z,6.70
2022-12-28T12:12:29.997Z,6.70
2022-12-28T12:15:03.291Z,6.70
2022-12-28T12:17:39.759Z,6.70
2022-12-28T12:20:17.685Z,6.80
2022-12-28T12:22:48.388Z,6.80
2022-12-28T12:25:19.527Z,6.80
2022-12-28T12:27:49.534Z,6.90
2022-12-28T12:30:20.102Z,7.00
2022-12-28T12:32:50.303Z,7.10
2022-12-28T12:35:19.115Z,7.10
2022-12-28T12:37:48.248Z,7.30
2022-12-28T12:40:23.806Z,7.40
2022-12-28T12:43:00.058Z,7.50
2022-12-28T12:45:32.781Z,7.60
2022-12-28T12:48:07.935Z,7.70
2022-12-28T12:50:48.018Z,7.70
2022-12-28T12:53:22.313Z,7.80
2022-12-28T12:55:57.151Z,7.80
2022-12-28T12:58:27.224Z,7.90
2022-12-28T13:01:06.390Z,7.90
2022-12-28T13:03:39.593Z,7.90
2022-12-28T13:06:07.765Z,7.90
2022-12-28T13:08:37.507Z,7.90
2022-12-28T13:11:08.905Z,7.90
2022-12-28T13:13:38.702Z,7.90
2022-12-28T13:16:11.287Z,8.00
2022-12-28T13:18:46.506Z,8.00
2022-12-28T13:21:20.203Z,8.10
2022-12-28T13:23:48.097Z,8.20
2022-12-28T13:26:16.637Z,8.30
2022-12-28T13:28:49.149Z,8.90
2022-12-28T13:31:19.507Z,9.80
2022-12-28T13:33:57.334Z,9.90
2022-12-28T13:36:25.155Z,9.70
2022-12-28T13:39:14.098Z,9.40
2022-12-28T13:41:46.603Z,9.10
2022-12-28T13:44:29.817Z,8.90
2022-12-28T13:47:01.364Z,8.70
2022-12-28T13:49:30.188Z,8.40
2022-12-28T13:51:58.043Z,8.20
2022-12-28T13:54:26.122Z,8.00
2022-12-28T13:57:08.599Z,7.70
2022-12-28T13:59:42.712Z,7.60
2022-12-28T14:02:16.334Z,7.30
2022-12-28T14:04:53.089Z,7.10
2022-12-28T14:07:22.691Z,7.10
2022-12-28T14:09:51.061Z,7.30
2022-12-28T14:12:19.321Z,7.60
2022-12-28T14:14:47.600Z,7.60
2022-12-28T14:17:17.033Z,7.40
2022-12-28T14:19:45.662Z,7.20
2022-12-28T14:22:26.764Z,7.20
2022-12-28T14:25:02.080Z,7.30
2022-12-28T14:27:30.721Z,7.30
2022-12-28T14:29:58.752Z,7.00
2022-12-28T14:32:28.153Z,6.80
2022-12-28T14:35:02.333Z,6.60
2022-12-28T14:37:32.062Z,6.40
2022-12-28T14:40:02.177Z,6.10
2022-12-28T14:42:31.121Z,6.00
2022-12-28T14:44:59.050Z,5.90
2022-12-28T14:47:35.488Z,5.70
2022-12-28T14:50:05.038Z,5.70
2022-12-28T14:52:36.792Z,5.60
2022-12-28T14:55:23.097Z,5.50
2022-12-28T14:57:52.591Z,5.40
2022-12-28T15:00:24.721Z,5.20
2022-12-28T15:02:54.339Z,5.10
2022-12-28T15:05:40.000Z,5.00
2022-12-28T15:08:08.333Z,4.90
2022-12-28T15:10:37.372Z,4.70
2022-12-28T15:13:05.183Z,4.60
2022-12-28T15:15:33.064Z,4.40
2022-12-28T15:18:02.734Z,4.30
2022-12-28T15:20:30.592Z,4.10
2022-12-28T15:22:58.407Z,3.90
2022-12-28T15:25:26.196Z,3.80
2022-12-28T15:27:54.015Z,3.60
2022-12-28T15:30:28.816Z,3.50
2022-12-28T15:32:57.064Z,3.40
2022-12-28T15:35:26.232Z,3.30
2022-12-28T15:37:54.026Z,3.20
2022-12-28T15:40:21.861Z,3.00
2022-12-28T15:42:49.705Z,3.00
2022-12-28T15:45:18.022Z,2.90
2022-12-28T15:47:46.376Z,2.80
2022-12-28T15:50:14.263Z,2.70
2022-12-28T15:52:43.397Z,2.60
2022-12-28T15:55:11.196Z,2.50
2022-12-28T15:57:39.057Z,2.40
2022-12-28T16:00:07.442Z,2.30
2022-12-28T16:02:35.463Z,2.30
2022-12-28T16:05:03.555Z,2.20
2022-12-28T16:07:31.366Z,2.10
2022-12-28T16:10:00.596Z,2.10
2022-12-28T16:12:28.389Z,2.00
2022-12-28T16:14:56.307Z,1.90
2022-12-28T16:17:24.145Z,1.80
2022-12-28T16:19:51.971Z,1.70
2022-12-28T16:22:19.781Z,1.70
2022-12-28T16:24:48.603Z,1.60
2022-12-28T16:27:17.802Z,1.60
2022-12-28T16:29:46.312Z,1.50
2022-12-28T16:32:14.207Z,1.50
2022-12-28T16:34:42.026Z,1.50
2022-12-28T16:37:10.207Z,1.50
2022-12-28T16:39:38.479Z,1.50
2022-12-28T16:42:07.131Z,1.40
2022-12-28T16:44:37.139Z,1.40
2022-12-28T16:47:05.699Z,1.30
2022-12-28T16:49:33.790Z,1.20
2022-12-28T16:52:01.619Z,1.20
2022-12-28T16:54:29.439Z,1.10
2022-12-28T16:56:57.454Z,1.10
2022-12-28T16:59:26.554Z,1.10
2022-12-28T17:01:56.796Z,1.00
2022-12-28T17:04:24.877Z,1.10
2022-12-28T17:06:53.354Z,1.10
2022-12-28T17:09:21.769Z,1.00
2022-12-28T17:11:50.662Z,1.10
2022-12-28T17:14:35.603Z,1.00
2022-12-28T17:17:06.019Z,1.00
2022-12-28T17:19:34.036Z,1.00
2022-12-28T17:22:01.894Z,1.00
2022-12-28T17:24:29.717Z,0.90
2022-12-28T17:27:01.690Z,0.90
2022-12-28T17:29:33.206Z,0.90
2022-12-28T17:32:01.088Z,0.90
2022-12-28T17:34:30.277Z,0.80
2022-12-28T17:36:58.357Z,0.80
2022-12-28T17:39:26.188Z,0.80
2022-12-28T17:41:53.994Z,0.80
2022-12-28T17:44:21.784Z,0.80
2022-12-28T17:46:49.632Z,0.80
2022-12-28T17:49:17.731Z,0.80
2022-12-28T17:51:46.909Z,0.80
2022-12-28T17:54:15.976Z,0.90
2022-12-28T17:56:44.413Z,0.90
2022-12-28T17:59:13.513Z,0.90
2022-12-28T18:01:41.467Z,0.80
2022-12-28T18:04:09.451Z,0.80
2022-12-28T18:06:37.306Z,0.80
2022-12-28T18:09:06.576Z,0.80
2022-12-28T18:11:34.403Z,0.80
2022-12-28T18:14:02.265Z,0.80
2022-12-28T18:16:30.165Z,0.80
2022-12-28T18:18:58.006Z,0.80
2022-12-28T18:21:25.804Z,0.80
2022-12-28T18:23:53.916Z,0.80
2022-12-28T18:26:23.952Z,0.80
2022-12-28T18:28:51.790Z,0.70
2022-12-28T18:31:19.920Z,0.70
2022-12-28T18:33:47.896Z,0.70
2022-12-28T18:36:17.979Z,0.70
2022-12-28T18:38:46.166Z,0.70
2022-12-28T18:41:15.190Z,0.70
2022-12-28T18:43:44.394Z,0.70
2022-12-28T18:46:12.250Z,0.70
2022-12-28T18:48:41.181Z,0.80
2022-12-28T18:51:09.993Z,0.80
2022-12-28T18:53:38.229Z,0.80
2022-12-28T18:56:07.421Z,0.80
2022-12-28T18:58:36.086Z,0.80
2022-12-28T19:01:06.766Z,0.80
2022-12-28T19:03:35.331Z,0.90
2022-12-28T19:06:04.059Z,0.90
2022-12-28T19:08:32.455Z,0.80
2022-12-28T19:11:00.485Z,0.90
2022-12-28T19:13:28.380Z,0.90
2022-12-28T19:15:56.266Z,0.90
2022-12-28T19:18:25.446Z,0.90
2022-12-28T19:20:56.298Z,1.00
2022-12-28T19:23:24.112Z,1.00
2022-12-28T19:25:54.461Z,1.00
2022-12-28T19:28:22.266Z,1.00
2022-12-28T19:30:51.257Z,1.00
2022-12-28T19:33:19.105Z,1.00
2022-12-28T19:35:48.261Z,1.00
2022-12-28T19:38:16.163Z,1.00
2022-12-28T19:40:44.029Z,1.10
2022-12-28T19:43:12.854Z,1.10
2022-12-28T19:45:40.720Z,1.10
2022-12-28T19:48:08.850Z,1.10
2022-12-28T19:50:36.728Z,1.10
2022-12-28T19:53:07.263Z,1.10
2022-12-28T19:55:35.906Z,1.10
2022-12-28T19:58:03.728Z,1.10
2022-12-28T20:00:31.528Z,1.20
2022-12-28T20:02:59.389Z,1.20
2022-12-28T20:05:27.293Z,1.10
2022-12-28T20:07:55.115Z,1.20
2022-12-28T20:10:24.318Z,1.10
2022-12-28T20:12:52.093Z,1.10
2022-12-28T20:15:19.932Z,1.10
2022-12-28T20:17:47.771Z,1.10
2022-12-28T20:20:17.091Z,1.10
2022-12-28T20:22:46.026Z,1.10
2022-12-28T20:25:13.909Z,1.10
2022-12-28T20:27:43.083Z,1.10
2022-12-28T20:30:11.392Z,1.10
2022-12-28T20:32:44.525Z,1.00
2022-12-28T20:35:12.826Z,1.00
2022-12-28T20:37:40.737Z,1.00
2022-12-28T20:40:08.989Z,1.00
2022-12-28T20:42:54.412Z,1.00
2022-12-28T20:45:23.931Z,1.00
2022-12-28T20:47:53.401Z,1.00
2022-12-28T20:50:21.288Z,1.00
2022-12-28T20:52:49.142Z,1.00
2022-12-28T20:55:16.990Z,0.90
2022-12-28T20:57:45.478Z,1.00
2022-12-28T21:00:13.953Z,0.90
2022-12-28T21:02:43.137Z,0.80
2022-12-28T21:05:10.964Z,0.70
2022-12-28T21:07:39.168Z,0.70
2022-12-28T21:10:07.424Z,0.60
2022-12-28T21:12:35.276Z,0.60
2022-12-28T21:15:03.146Z,0.70
2022-12-28T21:17:30.971Z,0.70
2022-12-28T21:20:00.162Z,0.70
2022-12-28T21:22:27.958Z,0.70
2022-12-28T21:24:55.834Z,0.70
2022-12-28T21:27:23.631Z,0.70
2022-12-28T21:29:51.462Z,0.70
2022-12-28T21:32:19.278Z,0.70
2022-12-28T21:34:47.109Z,0.70
2022-12-28T21:37:34.052Z,0.70
2022-12-28T21:40:01.928Z,0.70
2022-12-28T21:42:29.719Z,0.70
2022-12-28T21:44:57.530Z,0.70
2022-12-28T21:47:25.346Z,0.80
2022-12-28T21:49:53.201Z,0.70
2022-12-28T21:52:22.335Z,0.70
2022-12-28T21:54:50.148Z,0.70
2022-12-28T21:57:17.986Z,0.70
2022-12-28T21:59:45.860Z,0.70
2022-12-28T22:02:37.954Z,0.70
2022-12-28T22:05:23.948Z,0.60
2022-12-28T22:08:14.146Z,0.60
2022-12-28T22:10:59.582Z,0.60
2022-12-28T22:13:27.381Z,0.60
2022-12-28T22:15:57.646Z,0.50
2022-12-28T22:21:13.716Z,0.40
2022-12-28T22:23:42.894Z,0.40
2022-12-28T22:26:10.855Z,0.40
2022-12-28T22:28:38.731Z,0.30
2022-12-28T22:31:06.853Z,0.30
2022-12-28T22:33:35.017Z,0.20
2022-12-28T22:36:09.192Z,0.10
2022-12-28T22:38:37.068Z,0.10
2022-12-28T22:41:06.360Z,0.10
2022-12-28T22:43:34.232Z,0.10
2022-12-28T22:46:02.933Z,0.10
2022-12-28T22:48:30.968Z,0.10
2022-12-28T22:51:01.847Z,0.10
2022-12-28T22:53:29.636Z,0.10
2022-12-28T22:55:58.245Z,0.10
2022-12-28T22:58:27.809Z,0.10
2022-12-28T23:01:03.960Z,0.10
2022-12-28T23:03:31.969Z,0.10
2022-12-28T23:05:59.937Z,0.00
2022-12-28T23:08:27.770Z,0.00
2022-12-28T23:10:56.877Z,0.10
2022-12-28T23:13:25.150Z,0.10
2022-12-28T23:15:56.935Z,0.10
2022-12-28T23:18:42.219Z,0.10
2022-12-28T23:21:35.547Z,0.00
2022-12-28T23:24:21.532Z,0.00
2022-12-28T23:27:06.820Z,0.00
2022-12-28T23:29:34.678Z,-0.10
2022-12-28T23:32:03.878Z,-0.10
2022-12-28T23:34:31.826Z,-0.10
2022-12-28T23:36:59.630Z,-0.10
2022-12-28T23:39:27.459Z,-0.10
2022-12-28T23:41:55.305Z,-0.10
2022-12-28T23:44:23.817Z,-0.20
2022-12-28T23:46:58.307Z,-0.20
2022-12-28T23:49:28.456Z,-0.20
2022-12-28T23:51:56.272Z,-0.20
2022-12-28T23:54:24.122Z,-0.10
2022-12-28T23:56:51.923Z,-0.20
2022-12-28T23:59:19.729Z,-0.20
